Terminal Aerodrome Forecast
Issued by NWS

Home | Current Version | Previous Version | Text Only | Print | Product List | Glossary On
Versions: 1 2 3 4 5 6 7 8 9 10 11 12 13 14
376
FTUS43 KDTX 282332
TAFDET
TAF
KDET 282332Z 2900/2924 18005KT P6SM OVC080
      TEMPO 2900/2904 6SM -RA OVC040
     FM290400 VRB03KT 6SM -SHRA OVC040
     FM290800 02005KT P6SM OVC025
     FM291400 04010KT P6SM SCT040 OVC080
     FM291900 06013KT 6SM -RA OVC040=

USA.gov is the U.S. government's official web portal to all federal, state and local government web resources and services.